Time;durP1;ratioP1;P1;durP2;ratioP2;P2;SDS_P1;SDS_P2;PMS_P1;PMS_P2;Temp;Humidity;BMP_temperature;BMP_pressure;BME280_temperature;BME280_humidity;BME280_pressure;Samples;Min_cycle;Max_cycle;Signal;HPM_P1;HPM_P2
2022/08/24 00:00:19;;;;;;;16.40;12.32;;;20.20;99.90;;;;;;4981611;28;20449;-51
2022/08/24 00:02:47;;;;;;;19.27;13.35;;;20.20;99.90;;;;;;4979120;28;20054;-49
2022/08/24 00:05:13;;;;;;;19.05;12.00;;;20.20;99.90;;;;;;4947431;28;20049;-49
2022/08/24 00:07:39;;;;;;;17.73;12.52;;;20.10;99.90;;;;;;5036374;28;20051;-48
2022/08/24 00:10:08;;;;;;;18.15;14.00;;;20.10;99.90;;;;;;5037529;28;20038;-50
2022/08/24 00:12:34;;;;;;;22.30;16.70;;;20.00;99.90;;;;;;5042097;28;20116;-46
2022/08/24 00:15:01;;;;;;;26.98;21.63;;;19.90;99.90;;;;;;5040938;28;20144;-48
2022/08/24 00:17:26;;;;;;;17.88;12.52;;;19.90;99.90;;;;;;5034839;28;20033;-49
2022/08/24 00:19:52;;;;;;;19.40;14.27;;;19.80;99.90;;;;;;5043011;28;20041;-50
2022/08/24 00:22:19;;;;;;;17.88;14.23;;;19.80;99.90;;;;;;5003397;28;20041;-50
2022/08/24 00:24:45;;;;;;;19.40;15.07;;;19.90;99.90;;;;;;5041189;28;20029;-48
2022/08/24 00:27:11;;;;;;;19.05;14.07;;;19.90;99.90;;;;;;5041918;28;20037;-48
2022/08/24 00:29:38;;;;;;;18.42;15.70;;;20.00;99.90;;;;;;5042691;28;20108;-50
2022/08/24 00:32:04;;;;;;;21.48;13.27;;;19.90;99.90;;;;;;5003365;28;20056;-49
2022/08/24 00:34:30;;;;;;;19.90;15.07;;;19.90;99.90;;;;;;5031644;28;20034;-50
2022/08/24 00:36:56;;;;;;;21.13;14.48;;;19.90;99.90;;;;;;5047163;28;20408;-49
2022/08/24 00:39:22;;;;;;;16.80;12.77;;;19.80;99.90;;;;;;5039885;28;20041;-47
2022/08/24 00:41:50;;;;;;;20.48;14.77;;;19.80;99.90;;;;;;5027548;28;20087;-50
2022/08/24 00:44:17;;;;;;;22.55;15.80;;;19.80;99.90;;;;;;5038188;28;20389;-47
2022/08/24 00:47:00;;;;;;;24.00;17.30;;;19.90;99.90;;;;;;5051601;28;20036;-47
2022/08/24 00:49:44;;;;;;;22.00;15.88;;;19.80;99.90;;;;;;5045351;28;20174;-49
2022/08/24 00:52:15;;;;;;;22.52;16.83;;;19.80;99.90;;;;;;5044079;28;20073;-46
2022/08/24 00:54:44;;;;;;;22.73;15.98;;;19.80;99.90;;;;;;5052413;28;20527;-47
2022/08/24 00:57:11;;;;;;;19.65;15.75;;;19.80;99.90;;;;;;5047961;28;20032;-47
2022/08/24 00:59:42;;;;;;;22.88;15.50;;;19.80;99.90;;;;;;5044296;28;20064;-47
2022/08/24 01:02:17;;;;;;;25.48;17.75;;;19.80;99.90;;;;;;5030904;28;20554;-49
2022/08/24 01:04:55;;;;;;;24.77;15.82;;;19.80;99.90;;;;;;5023744;28;20030;-47
2022/08/24 01:07:26;;;;;;;23.55;15.20;;;19.90;99.90;;;;;;5030377;28;20046;-51
2022/08/24 01:09:55;;;;;;;21.33;16.42;;;19.90;99.90;;;;;;4973925;28;20058;-47
2022/08/24 01:12:24;;;;;;;21.63;15.88;;;19.90;99.90;;;;;;4973270;28;20384;-51
2022/08/24 01:14:50;;;;;;;24.85;17.38;;;19.80;99.90;;;;;;4973126;28;20553;-47
2022/08/24 01:20:05;;;;;;;21.60;16.67;;;19.90;99.90;;;;;;4973632;28;20181;-48
2022/08/24 01:22:49;;;;;;;24.60;15.65;;;20.00;99.90;;;;;;4946880;29;20043;-50
2022/08/24 01:25:15;;;;;;;24.75;16.77;;;20.00;99.90;;;;;;4941510;29;20050;-51
2022/08/24 01:27:42;;;;;;;22.92;15.07;;;20.00;99.90;;;;;;4907745;29;20036;-50
2022/08/24 01:30:12;;;;;;;19.75;15.57;;;20.00;99.90;;;;;;4946529;29;20044;-50
2022/08/24 01:32:39;;;;;;;21.58;15.65;;;20.00;99.90;;;;;;4951718;29;20475;-48
2022/08/24 01:35:05;;;;;;;23.80;16.08;;;20.00;99.90;;;;;;4947774;29;20054;-46
2022/08/24 01:37:32;;;;;;;22.15;15.70;;;20.00;99.90;;;;;;4912140;29;20466;-48
2022/08/24 01:40:02;;;;;;;21.83;16.33;;;20.10;99.90;;;;;;4950197;28;20051;-48
2022/08/24 01:42:28;;;;;;;23.00;14.93;;;20.10;99.90;;;;;;4976580;28;20041;-46
2022/08/24 01:44:55;;;;;;;20.45;15.82;;;20.10;99.90;;;;;;4984172;28;20045;-49
2022/08/24 01:47:21;;;;;;;21.33;15.50;;;20.20;99.90;;;;;;4977199;28;20098;-48
2022/08/24 01:49:47;;;;;;;19.75;15.48;;;20.20;99.90;;;;;;4985925;28;20042;-48
2022/08/24 01:52:18;;;;;;;20.58;15.52;;;20.20;99.90;;;;;;4977599;28;20038;-49
2022/08/24 01:54:44;;;;;;;19.63;14.95;;;20.20;99.90;;;;;;4984044;28;20501;-51
2022/08/24 01:57:10;;;;;;;21.70;14.88;;;20.20;99.90;;;;;;4982335;28;20030;-51
2022/08/24 01:59:37;;;;;;;19.58;14.98;;;20.20;99.90;;;;;;4994280;28;20048;-48
2022/08/24 02:02:18;;;;;;;21.90;14.45;;;20.20;99.90;;;;;;5023205;28;20096;-48
2022/08/24 02:04:44;;;;;;;19.57;14.03;;;20.20;99.90;;;;;;5021100;28;20460;-51
2022/08/24 02:07:11;;;;;;;19.75;15.30;;;20.10;99.90;;;;;;5023115;28;20026;-47
2022/08/24 02:09:37;;;;;;;17.50;14.93;;;20.20;99.90;;;;;;4998682;28;20053;-49
2022/08/24 02:12:05;;;;;;;22.25;14.25;;;20.10;99.90;;;;;;5023419;28;20074;-46
2022/08/24 02:14:31;;;;;;;21.85;15.45;;;20.10;99.90;;;;;;5024964;28;20437;-46
2022/08/24 02:16:57;;;;;;;14.93;11.35;;;20.10;99.90;;;;;;5022906;28;20022;-50
2022/08/24 02:19:25;;;;;;;16.55;13.40;;;20.10;99.90;;;;;;4995322;28;20116;-48
2022/08/24 02:21:51;;;;;;;15.82;14.15;;;20.00;99.90;;;;;;5025509;28;20500;-49
2022/08/24 02:24:16;;;;;;;18.50;13.77;;;20.00;99.90;;;;;;5020698;28;20091;-49
2022/08/24 02:26:42;;;;;;;19.80;14.52;;;20.00;99.90;;;;;;5025615;28;20025;-50
2022/08/24 02:29:08;;;;;;;20.60;13.98;;;20.00;99.90;;;;;;5022602;28;20572;-49
2022/08/24 02:31:35;;;;;;;19.35;13.98;;;20.10;99.90;;;;;;5018111;28;20120;-46
2022/08/24 02:34:01;;;;;;;19.30;13.75;;;20.10;99.90;;;;;;5015517;28;20029;-49
2022/08/24 02:36:28;;;;;;;17.85;14.65;;;20.00;99.90;;;;;;5024577;28;20128;-48
2022/08/24 02:38:54;;;;;;;18.75;13.63;;;20.00;99.90;;;;;;4995693;28;20100;-49
2022/08/24 02:41:22;;;;;;;16.98;13.27;;;20.00;99.90;;;;;;5022359;28;20068;-50
2022/08/24 02:43:49;;;;;;;16.83;14.15;;;20.00;99.90;;;;;;5022179;28;20556;-49
2022/08/24 02:46:22;;;;;;;19.60;14.10;;;20.10;99.90;;;;;;5028086;28;20026;-47
2022/08/24 02:48:49;;;;;;;18.23;14.27;;;20.10;99.90;;;;;;5020258;28;20034;-49
2022/08/24 02:51:45;;;;;;;16.77;13.00;;;20.10;99.90;;;;;;5022178;28;20065;-47
2022/08/24 02:54:12;;;;;;;20.27;13.35;;;20.10;99.90;;;;;;4933577;29;20079;-51
2022/08/24 02:56:38;;;;;;;17.05;11.23;;;20.10;99.90;;;;;;4933112;29;20383;-47
2022/08/24 02:59:04;;;;;;;16.50;12.60;;;20.10;99.90;;;;;;4933213;29;20039;-50
2022/08/24 03:01:30;;;;;;;14.63;11.60;;;20.10;99.90;;;;;;4922439;29;20051;-50
2022/08/24 03:03:56;;;;;;;13.73;11.25;;;20.10;99.90;;;;;;4932809;29;20039;-52
2022/08/24 03:06:22;;;;;;;13.52;10.60;;;20.10;99.90;;;;;;4932704;29;20444;-53
2022/08/24 03:08:48;;;;;;;12.13;10.85;;;20.10;99.90;;;;;;4932751;29;20035;-50
2022/08/24 03:11:13;;;;;;;19.73;10.95;;;20.10;99.90;;;;;;4932620;29;20066;-49
2022/08/24 03:13:39;;;;;;;12.23;10.90;;;20.10;99.90;;;;;;4933040;29;20038;-48
2022/08/24 03:16:05;;;;;;;14.77;10.68;;;20.10;99.90;;;;;;4915022;29;20420;-50
2022/08/24 03:18:32;;;;;;;11.93;10.13;;;20.10;99.90;;;;;;4916450;29;20051;-49
2022/08/24 03:21:00;;;;;;;13.48;10.10;;;20.10;99.90;;;;;;4932417;29;20066;-50
2022/08/24 03:23:26;;;;;;;12.88;11.32;;;20.10;99.90;;;;;;4917037;29;20360;-51
2022/08/24 03:25:53;;;;;;;14.40;11.95;;;20.10;99.90;;;;;;4932661;29;20399;-49
2022/08/24 03:28:21;;;;;;;15.07;11.23;;;20.10;99.90;;;;;;4932494;29;20036;-48
2022/08/24 03:30:47;;;;;;;14.25;10.55;;;20.20;99.90;;;;;;4985246;28;20046;-49
2022/08/24 03:33:13;;;;;;;11.88;10.27;;;20.20;99.90;;;;;;5023657;28;20060;-47
2022/08/24 03:35:39;;;;;;;15.02;10.18;;;20.20;99.90;;;;;;5019325;28;20049;-46
2022/08/24 03:38:05;;;;;;;12.93;10.75;;;20.30;99.90;;;;;;5013461;28;20052;-47
2022/08/24 03:40:32;;;;;;;15.40;10.70;;;20.20;99.90;;;;;;4994090;28;20083;-49
2022/08/24 03:42:59;;;;;;;12.00;10.63;;;20.20;99.90;;;;;;4984981;28;20111;-49
2022/08/24 03:45:25;;;;;;;10.75;9.05;;;20.20;99.90;;;;;;5026014;28;20040;-48
2022/08/24 03:47:51;;;;;;;13.15;10.23;;;20.20;99.90;;;;;;5013085;28;20029;-47
2022/08/24 03:50:18;;;;;;;12.55;10.55;;;20.10;99.90;;;;;;5022841;28;20057;-49
2022/08/24 03:52:44;;;;;;;14.43;9.98;;;20.20;99.90;;;;;;4975914;28;20038;-53
2022/08/24 03:55:10;;;;;;;13.90;10.40;;;20.20;99.90;;;;;;4989180;28;20394;-48
2022/08/24 03:57:36;;;;;;;18.02;11.40;;;20.20;99.90;;;;;;4978235;28;20090;-50
2022/08/24 04:00:08;;;;;;;12.90;9.82;;;20.20;99.90;;;;;;4979444;28;20031;-49
2022/08/24 04:02:34;;;;;;;10.98;9.80;;;20.20;99.90;;;;;;5007516;28;20405;-50
2022/08/24 04:04:59;;;;;;;14.52;9.95;;;20.20;99.90;;;;;;4998186;28;20030;-49
2022/08/24 04:07:26;;;;;;;10.40;9.30;;;20.30;99.90;;;;;;5001509;28;20034;-48
2022/08/24 04:09:52;;;;;;;11.93;10.52;;;20.30;99.90;;;;;;4994658;28;20521;-50
2022/08/24 04:12:17;;;;;;;13.98;9.18;;;20.20;99.90;;;;;;5006366;28;20050;-47
2022/08/24 04:14:43;;;;;;;13.18;9.85;;;20.20;99.90;;;;;;4997729;28;20501;-48
2022/08/24 04:17:11;;;;;;;11.00;9.85;;;20.30;99.90;;;;;;4999325;28;20109;-49
2022/08/24 04:19:37;;;;;;;11.25;10.15;;;20.20;99.90;;;;;;5001696;28;20112;-50
2022/08/24 04:22:03;;;;;;;13.00;10.45;;;20.20;99.90;;;;;;4977479;28;20173;-49
2022/08/24 04:24:29;;;;;;;14.02;10.40;;;20.20;99.90;;;;;;5024922;28;20112;-48
2022/08/24 04:26:54;;;;;;;13.90;10.75;;;20.20;99.90;;;;;;4983719;28;20495;-49
2022/08/24 04:29:20;;;;;;;11.93;10.10;;;20.20;99.90;;;;;;5045430;28;20377;-47
2022/08/24 04:31:46;;;;;;;15.45;11.50;;;20.10;99.90;;;;;;5041140;28;20045;-46
2022/08/24 04:34:14;;;;;;;13.13;10.30;;;20.10;99.90;;;;;;5038772;28;20029;-48
2022/08/24 04:36:43;;;;;;;14.80;11.43;;;20.10;99.90;;;;;;5011897;28;20071;-48
2022/08/24 04:39:10;;;;;;;12.50;11.20;;;20.10;99.90;;;;;;5040553;28;20076;-49
2022/08/24 04:41:36;;;;;;;13.00;10.77;;;20.10;99.90;;;;;;5019300;28;20052;-49
2022/08/24 04:44:02;;;;;;;15.10;11.25;;;20.20;99.90;;;;;;5041856;28;20069;-47
2022/08/24 04:46:28;;;;;;;12.57;11.27;;;20.10;99.90;;;;;;5040479;28;20025;-49
2022/08/24 04:48:55;;;;;;;13.55;10.80;;;20.10;99.90;;;;;;5034276;28;20029;-48
2022/08/24 04:51:20;;;;;;;13.57;10.10;;;20.10;99.90;;;;;;5042783;28;20468;-50
2022/08/24 04:53:49;;;;;;;16.58;10.48;;;20.20;99.90;;;;;;4980905;28;20037;-48
2022/08/24 04:56:18;;;;;;;11.02;9.75;;;20.20;99.90;;;;;;4984160;28;20042;-48
2022/08/24 04:58:44;;;;;;;13.45;10.65;;;20.20;99.90;;;;;;4980219;28;20043;-50
2022/08/24 05:01:16;;;;;;;12.35;9.90;;;20.20;99.90;;;;;;4937213;28;20511;-49
2022/08/24 05:03:49;;;;;;;11.15;9.52;;;20.20;99.90;;;;;;4969720;28;20042;-50
2022/08/24 05:06:16;;;;;;;10.20;8.20;;;20.20;99.90;;;;;;4915175;29;20043;-47
2022/08/24 05:08:42;;;;;;;10.80;9.52;;;20.10;99.90;;;;;;4899655;29;20050;-50
2022/08/24 05:11:08;;;;;;;12.93;10.35;;;20.20;99.90;;;;;;4931564;29;20048;-47
2022/08/24 05:13:36;;;;;;;12.98;10.30;;;20.20;99.90;;;;;;4883742;29;20424;-46
2022/08/24 05:16:10;;;;;;;12.45;10.15;;;20.30;99.90;;;;;;4931527;29;20570;-50
2022/08/24 05:18:37;;;;;;;12.85;9.95;;;20.30;99.90;;;;;;4931275;29;20108;-46
2022/08/24 05:21:07;;;;;;;15.32;10.27;;;20.30;99.90;;;;;;4924675;29;20044;-47
2022/08/24 05:23:34;;;;;;;12.55;10.00;;;20.30;99.90;;;;;;4933475;29;20032;-47
2022/08/24 05:26:09;;;;;;;13.45;10.75;;;20.30;99.90;;;;;;4934519;29;20047;-46
2022/08/24 05:28:35;;;;;;;11.68;10.23;;;20.30;99.90;;;;;;4930895;29;20098;-49
2022/08/24 05:31:09;;;;;;;12.52;10.65;;;20.30;99.90;;;;;;4938121;29;20059;-49
2022/08/24 05:33:35;;;;;;;11.55;9.27;;;20.30;99.90;;;;;;4901214;29;20043;-47
2022/08/24 05:36:02;;;;;;;11.75;9.73;;;20.30;99.90;;;;;;4877273;29;20072;-49
2022/08/24 05:38:28;;;;;;;10.43;9.32;;;20.20;99.90;;;;;;4914341;29;20040;-50
2022/08/24 05:40:54;;;;;;;10.15;9.07;;;20.20;99.90;;;;;;4962962;28;20439;-49
2022/08/24 05:43:20;;;;;;;10.65;9.55;;;20.50;99.90;;;;;;4931598;28;20046;-48
2022/08/24 05:45:46;;;;;;;12.00;9.23;;;20.20;99.90;;;;;;4972303;28;20186;-50
2022/08/24 05:48:12;;;;;;;13.95;10.02;;;20.20;99.90;;;;;;4955438;28;20194;-46
2022/08/24 05:50:37;;;;;;;11.10;9.60;;;20.30;99.90;;;;;;4966907;28;20055;-48
2022/08/24 05:53:03;;;;;;;11.77;9.48;;;20.30;99.90;;;;;;4972498;28;20027;-47
2022/08/24 05:55:29;;;;;;;11.25;9.48;;;20.40;99.90;;;;;;4970334;28;20031;-49
2022/08/24 05:57:55;;;;;;;11.13;9.40;;;20.30;99.90;;;;;;4971468;28;20062;-50
2022/08/24 06:00:22;;;;;;;12.32;9.57;;;20.20;99.90;;;;;;4967730;28;20545;-46
2022/08/24 06:02:51;;;;;;;13.05;10.00;;;20.20;99.90;;;;;;4968509;28;20136;-47
2022/08/24 06:05:17;;;;;;;10.88;8.55;;;20.10;99.90;;;;;;4907207;29;20059;-48
2022/08/24 06:07:43;;;;;;;12.15;9.52;;;20.00;99.90;;;;;;4920104;29;20036;-48
2022/08/24 06:10:10;;;;;;;11.38;9.48;;;20.20;99.90;;;;;;4922864;29;20039;-48
2022/08/24 06:12:35;;;;;;;10.93;9.48;;;20.20;99.90;;;;;;4897495;28;20145;-50
2022/08/24 06:15:01;;;;;;;11.68;9.15;;;20.20;99.90;;;;;;4984188;28;20142;-49
2022/08/24 06:17:27;;;;;;;10.90;9.80;;;20.20;99.90;;;;;;4933745;28;20034;-50
2022/08/24 06:19:53;;;;;;;10.65;8.68;;;20.20;99.90;;;;;;4983877;28;20051;-50
2022/08/24 06:22:18;;;;;;;11.30;8.20;;;20.20;99.90;;;;;;4949422;28;20615;-50
2022/08/24 06:27:28;;;;;;;12.88;10.23;;;20.20;99.90;;;;;;4981748;28;20101;-48
2022/08/24 06:30:04;;;;;;;9.85;8.57;;;20.30;99.90;;;;;;4961004;28;20070;-48
2022/08/24 06:32:30;;;;;;;10.60;7.63;;;20.30;99.90;;;;;;4978134;28;20050;-48
2022/08/24 06:34:57;;;;;;;10.82;9.25;;;20.20;99.90;;;;;;4965644;28;20042;-49
2022/08/24 06:37:25;;;;;;;10.35;9.20;;;20.20;99.90;;;;;;5039788;28;20045;-48
2022/08/24 06:39:52;;;;;;;9.80;8.88;;;20.30;99.90;;;;;;5043711;28;20063;-48
2022/08/24 06:42:18;;;;;;;12.73;9.27;;;20.40;99.90;;;;;;5043655;28;20037;-47
2022/08/24 06:44:43;;;;;;;10.65;9.55;;;20.30;99.90;;;;;;5004754;28;20386;-48
2022/08/24 06:47:11;;;;;;;10.43;9.38;;;20.30;99.90;;;;;;5036807;28;20489;-48
2022/08/24 06:49:37;;;;;;;9.48;7.60;;;20.30;99.90;;;;;;5042712;28;20041;-49
2022/08/24 06:52:05;;;;;;;14.10;9.70;;;20.30;99.90;;;;;;5044519;28;20059;-48
2022/08/24 06:54:32;;;;;;;11.93;9.98;;;20.30;99.90;;;;;;5041915;28;20764;-48
2022/08/24 06:56:58;;;;;;;11.38;9.63;;;20.20;99.90;;;;;;5035894;28;20043;-48
2022/08/24 06:59:26;;;;;;;11.30;10.10;;;20.30;99.90;;;;;;5043762;28;20029;-48
2022/08/24 07:01:54;;;;;;;10.73;9.15;;;20.40;99.90;;;;;;5036409;28;20046;-48
2022/08/24 07:04:24;;;;;;;12.43;9.27;;;20.40;99.90;;;;;;5022816;28;20038;-49
2022/08/24 07:06:50;;;;;;;11.45;9.88;;;20.50;99.90;;;;;;5029531;28;20626;-47
2022/08/24 07:09:15;;;;;;;12.48;10.82;;;20.50;99.90;;;;;;5023051;28;20125;-48
2022/08/24 07:11:42;;;;;;;11.80;10.13;;;20.50;99.90;;;;;;4980910;28;20164;-48
2022/08/24 07:14:07;;;;;;;11.18;9.93;;;20.60;99.90;;;;;;4997336;28;20044;-48
2022/08/24 07:16:34;;;;;;;11.18;9.98;;;20.60;99.90;;;;;;5027161;28;20401;-48
2022/08/24 07:19:01;;;;;;;11.35;10.25;;;20.70;99.90;;;;;;5026683;28;20026;-49
2022/08/24 07:21:27;;;;;;;12.80;10.05;;;20.70;99.90;;;;;;5023752;28;20026;-48
2022/08/24 07:23:55;;;;;;;11.30;10.13;;;20.80;99.90;;;;;;5025549;28;20488;-48
2022/08/24 07:26:24;;;;;;;11.90;10.25;;;20.90;99.90;;;;;;4977946;28;20088;-48
2022/08/24 07:28:58;;;;;;;11.68;9.85;;;20.90;99.90;;;;;;5009909;28;20033;-49
2022/08/24 07:31:23;;;;;;;13.90;10.40;;;21.00;99.90;;;;;;5026306;28;20037;-48
2022/08/24 07:33:49;;;;;;;11.77;10.55;;;21.00;99.90;;;;;;5025961;28;20035;-49
2022/08/24 07:36:16;;;;;;;13.43;10.40;;;20.90;99.90;;;;;;5022807;28;20040;-48
2022/08/24 07:38:42;;;;;;;10.32;9.30;;;20.90;99.90;;;;;;5016307;28;20042;-48
2022/08/24 07:41:07;;;;;;;11.45;9.90;;;21.00;99.90;;;;;;4989477;28;20030;-49
2022/08/24 07:43:33;;;;;;;10.57;9.48;;;21.10;99.90;;;;;;5028569;28;20116;-49
2022/08/24 07:45:59;;;;;;;12.35;9.85;;;21.00;99.90;;;;;;5028857;28;20393;-49
2022/08/24 07:48:25;;;;;;;11.30;10.10;;;21.10;99.90;;;;;;5027923;28;20083;-49
2022/08/24 07:50:51;;;;;;;13.45;10.07;;;21.20;99.90;;;;;;5023212;28;20033;-48
2022/08/24 07:53:17;;;;;;;13.23;11.05;;;21.30;99.90;;;;;;5022636;28;20052;-49
2022/08/24 07:55:52;;;;;;;10.55;9.55;;;21.40;99.90;;;;;;4973344;28;20128;-48
2022/08/24 07:58:18;;;;;;;10.90;9.40;;;21.50;99.90;;;;;;5021171;28;20035;-48
2022/08/24 08:00:46;;;;;;;10.73;9.63;;;21.70;99.90;;;;;;5026195;28;20124;-49
2022/08/24 08:03:12;;;;;;;10.98;9.10;;;21.80;99.90;;;;;;5029684;28;20080;-49
2022/08/24 08:05:39;;;;;;;12.20;9.88;;;21.90;99.90;;;;;;5023686;28;20033;-49
2022/08/24 08:08:06;;;;;;;14.98;9.77;;;22.00;99.90;;;;;;5013498;28;20032;-48
2022/08/24 08:10:34;;;;;;;10.55;9.45;;;22.10;99.90;;;;;;5010061;28;20064;-49
2022/08/24 08:13:04;;;;;;;10.70;9.18;;;22.20;99.90;;;;;;5027486;28;20397;-50
2022/08/24 08:15:30;;;;;;;10.60;9.50;;;22.10;99.90;;;;;;5026845;28;20030;-49
2022/08/24 08:17:56;;;;;;;10.82;9.73;;;22.10;99.90;;;;;;4979009;28;20517;-49
2022/08/24 08:20:22;;;;;;;11.32;9.98;;;22.00;99.90;;;;;;5027319;28;20033;-49
2022/08/24 08:25:33;;;;;;;11.13;10.02;;;22.00;99.90;;;;;;5019621;28;20040;-49
2022/08/24 08:27:59;;;;;;;11.35;10.25;;;22.00;99.90;;;;;;5018954;28;20092;-48
2022/08/24 08:30:25;;;;;;;12.00;10.02;;;22.00;99.90;;;;;;5025656;28;20025;-49
2022/08/24 08:32:50;;;;;;;11.88;10.75;;;22.10;99.90;;;;;;5024327;28;20033;-50
2022/08/24 08:35:16;;;;;;;11.45;10.45;;;22.00;99.90;;;;;;4998755;28;20147;-49
2022/08/24 08:37:42;;;;;;;12.85;11.15;;;22.00;99.90;;;;;;5025105;28;20082;-49
2022/08/24 08:40:17;;;;;;;11.85;10.30;;;22.10;99.90;;;;;;5021201;28;20037;-49
2022/08/24 08:42:43;;;;;;;11.45;10.27;;;22.00;99.90;;;;;;4969601;28;20044;-49
2022/08/24 08:45:30;;;;;;;11.93;10.73;;;22.00;99.90;;;;;;5020209;28;20030;-49
2022/08/24 08:48:05;;;;;;;12.05;10.85;;;22.20;99.90;;;;;;5016278;28;20183;-49
2022/08/24 08:50:38;;;;;;;11.88;10.68;;;22.20;99.90;;;;;;5022896;28;20033;-49
2022/08/24 08:53:04;;;;;;;13.63;11.25;;;22.20;99.90;;;;;;5012239;28;20042;-50
2022/08/24 08:55:36;;;;;;;11.68;10.48;;;22.30;99.90;;;;;;5023948;28;20030;-49
2022/08/24 08:58:14;;;;;;;11.95;10.75;;;22.30;99.90;;;;;;5024517;28;20030;-48
2022/08/24 09:01:04;;;;;;;11.40;10.40;;;22.30;99.90;;;;;;5032267;28;20033;-50
2022/08/24 09:04:03;;;;;;;16.15;10.60;;;22.20;99.90;;;;;;5026544;28;20116;-49
2022/08/24 09:06:45;;;;;;;11.40;10.27;;;22.20;99.90;;;;;;5030054;28;20065;-49
2022/08/24 09:09:30;;;;;;;12.23;10.80;;;22.10;99.90;;;;;;5024456;28;20032;-49
2022/08/24 09:11:55;;;;;;;11.60;10.50;;;22.10;99.90;;;;;;5024239;28;20030;-49
2022/08/24 09:15:11;;;;;;;11.23;10.13;;;22.20;99.90;;;;;;5018148;28;20472;-48
2022/08/24 09:17:54;;;;;;;14.85;10.68;;;22.10;99.90;;;;;;4954136;28;20435;-48
2022/08/24 09:20:41;;;;;;;10.73;9.68;;;22.10;99.90;;;;;;4949405;28;20043;-49
2022/08/24 09:23:28;;;;;;;10.90;9.80;;;22.10;99.90;;;;;;4945500;29;20098;-48
2022/08/24 09:26:18;;;;;;;11.73;10.43;;;22.00;99.90;;;;;;4943916;28;20032;-49
2022/08/24 09:28:51;;;;;;;14.27;10.10;;;22.10;99.90;;;;;;4950411;28;20043;-48
2022/08/24 09:31:34;;;;;;;16.30;10.80;;;22.20;99.90;;;;;;4944356;28;20388;-48
2022/08/24 09:34:24;;;;;;;12.00;9.63;;;22.40;99.90;;;;;;4953698;28;20458;-49
2022/08/24 09:36:53;;;;;;;10.52;9.52;;;22.50;99.90;;;;;;4945493;29;20553;-49
2022/08/24 09:39:56;;;;;;;11.55;9.23;;;22.50;99.90;;;;;;4946121;28;20035;-48
2022/08/24 09:42:49;;;;;;;11.07;9.45;;;22.40;99.90;;;;;;4921613;29;20039;-49
2022/08/24 09:45:35;;;;;;;10.07;8.88;;;22.50;99.90;;;;;;4942476;28;20039;-48
2022/08/24 09:48:04;;;;;;;10.80;7.93;;;22.60;99.90;;;;;;4986081;28;20041;-49
2022/08/24 09:50:42;;;;;;;13.70;9.00;;;22.50;99.90;;;;;;5024117;28;20466;-56
2022/08/24 09:53:16;;;;;;;9.48;8.35;;;22.40;99.90;;;;;;5028365;28;20049;-51
2022/08/24 09:55:50;;;;;;;9.52;8.52;;;22.40;99.90;;;;;;5011438;28;20041;-53
2022/08/24 09:58:30;;;;;;;11.02;8.05;;;22.40;99.90;;;;;;5030813;28;20029;-54
2022/08/24 10:01:29;;;;;;;12.88;8.57;;;22.40;99.90;;;;;;5033198;28;20132;-52
2022/08/24 10:04:04;;;;;;;10.25;8.88;;;22.50;99.90;;;;;;5031104;28;20527;-50
2022/08/24 10:06:58;;;;;;;9.60;7.72;;;22.40;99.90;;;;;;5042237;28;20025;-50
2022/08/24 10:09:39;;;;;;;8.77;7.88;;;22.40;99.90;;;;;;5042838;28;21511;-49
2022/08/24 10:12:25;;;;;;;7.90;7.10;;;22.40;99.90;;;;;;5048266;28;20068;-51
2022/08/24 10:14:51;;;;;;;7.13;6.30;;;22.30;99.90;;;;;;5045605;28;20021;-49
2022/08/24 10:17:41;;;;;;;7.65;6.95;;;22.30;99.90;;;;;;5038452;28;20362;-50
2022/08/24 10:20:19;;;;;;;11.27;7.38;;;22.20;99.90;;;;;;5044148;28;20033;-50
2022/08/24 10:23:04;;;;;;;9.52;7.00;;;22.30;99.90;;;;;;5047422;28;20045;-52
2022/08/24 10:25:49;;;;;;;9.80;7.05;;;22.40;99.90;;;;;;5023382;28;20032;-50
2022/08/24 10:28:24;;;;;;;9.13;8.23;;;22.50;99.90;;;;;;5046996;28;20104;-51
2022/08/24 10:31:21;;;;;;;10.27;6.80;;;22.50;99.90;;;;;;5043812;28;20072;-51
2022/08/24 10:34:17;;;;;;;10.73;7.00;;;22.40;99.90;;;;;;5041259;28;20049;-52
2022/08/24 10:36:42;;;;;;;12.57;8.35;;;22.30;99.90;;;;;;5041477;28;20044;-50
2022/08/24 10:39:45;;;;;;;10.75;7.95;;;22.30;99.90;;;;;;5041831;28;20021;-51
2022/08/24 10:45:45;;;;;;;17.17;8.02;;;22.40;99.90;;;;;;5040578;28;20060;-49
2022/08/24 10:48:28;;;;;;;7.63;6.70;;;22.40;99.90;;;;;;5038562;28;20038;-52
2022/08/24 10:51:27;;;;;;;8.60;6.65;;;22.40;99.90;;;;;;5038810;28;20045;-51
2022/08/24 10:53:55;;;;;;;9.00;7.43;;;22.30;99.90;;;;;;5040346;28;20078;-51
2022/08/24 10:56:34;;;;;;;8.55;7.25;;;22.30;99.90;;;;;;5012362;28;20052;-50
2022/08/24 10:59:24;;;;;;;9.82;7.35;;;22.40;99.90;;;;;;4967353;28;20067;-51
2022/08/24 11:02:04;;;;;;;7.90;7.05;;;22.30;99.90;;;;;;4986882;28;20053;-50
2022/08/24 11:04:32;;;;;;;8.73;6.70;;;22.30;99.90;;;;;;4985846;28;20038;-51
2022/08/24 11:07:21;;;;;;;8.52;7.63;;;22.20;99.90;;;;;;4988706;28;20506;-51
2022/08/24 11:09:53;;;;;;;9.30;6.90;;;22.10;99.90;;;;;;4985985;28;20046;-52
2022/08/24 11:12:26;;;;;;;8.70;7.55;;;21.90;99.90;;;;;;4986879;28;20088;-52
2022/08/24 11:14:55;;;;;;;8.63;6.68;;;21.80;99.90;;;;;;4985216;28;20097;-49
2022/08/24 11:17:24;;;;;;;8.07;6.85;;;21.90;99.90;;;;;;4990311;28;20046;-51
2022/08/24 11:19:50;;;;;;;6.53;5.93;;;22.00;99.90;;;;;;4987283;28;20026;-50
2022/08/24 11:22:57;;;;;;;6.93;5.80;;;21.90;99.90;;;;;;4971196;28;20679;-53
2022/08/24 11:25:28;;;;;;;7.30;5.40;;;22.00;99.90;;;;;;4987636;28;20054;-51
2022/08/24 11:28:17;;;;;;;;;;;22.00;99.90;;;;;;4974255;28;20077;-50
2022/08/24 11:30:43;;;;;;;8.07;6.13;;;22.00;99.90;;;;;;4905676;29;19916;-49
2022/08/24 11:33:27;;;;;;;6.32;5.68;;;22.10;99.90;;;;;;4896272;29;20047;-51
2022/08/24 11:35:52;;;;;;;6.22;5.38;;;22.00;99.90;;;;;;4934347;28;20073;-49
2022/08/24 11:38:21;;;;;;;5.45;4.85;;;22.10;99.90;;;;;;4951246;29;20059;-50
2022/08/24 11:40:54;;;;;;;8.27;6.53;;;22.20;99.90;;;;;;4949549;28;20168;-49
2022/08/24 11:43:32;;;;;;;12.15;7.05;;;22.20;99.90;;;;;;4949795;28;20035;-51
2022/08/24 11:46:25;;;;;;;8.93;7.40;;;22.30;99.90;;;;;;4902745;29;20054;-50
2022/08/24 11:48:56;;;;;;;8.07;6.57;;;22.30;99.90;;;;;;4949954;29;20040;-52
2022/08/24 11:51:51;;;;;;;8.15;6.65;;;22.30;99.90;;;;;;4949626;28;20042;-49
2022/08/24 11:54:51;;;;;;;9.70;7.50;;;22.40;99.90;;;;;;4947545;28;20133;-50
2022/08/24 11:57:25;;;;;;;8.13;6.55;;;22.40;99.90;;;;;;4947751;28;20436;-52
2022/08/24 12:00:02;;;;;;;7.43;6.63;;;22.40;99.90;;;;;;4950167;28;20039;-51
2022/08/24 12:02:37;;;;;;;7.93;6.95;;;22.50;99.90;;;;;;4965426;28;20094;-49
2022/08/24 12:05:41;;;;;;;7.72;6.65;;;22.50;99.90;;;;;;4968524;28;20062;-52
2022/08/24 12:08:25;;;;;;;11.07;6.40;;;22.60;99.90;;;;;;4932710;28;20074;-50
2022/08/24 12:11:25;;;;;;;7.70;6.68;;;22.40;99.90;;;;;;4944874;28;20030;-50
2022/08/24 12:13:55;;;;;;;10.82;7.43;;;22.30;99.90;;;;;;4947216;29;20422;-51
2022/08/24 12:16:39;;;;;;;9.52;7.60;;;22.20;99.90;;;;;;4946311;28;20027;-50
2022/08/24 12:19:16;;;;;;;9.45;6.80;;;22.60;99.90;;;;;;4930838;29;20118;-51
2022/08/24 12:21:46;;;;;;;7.47;6.57;;;22.20;99.90;;;;;;4914619;28;20573;-51
2022/08/24 12:24:19;;;;;;;9.05;6.75;;;22.00;99.90;;;;;;4937399;28;20043;-52
2022/08/24 12:26:50;;;;;;;9.38;8.38;;;22.00;99.90;;;;;;4913303;29;20039;-50
2022/08/24 12:29:21;;;;;;;8.82;7.45;;;22.10;99.90;;;;;;4941514;29;20032;-51
2022/08/24 12:32:09;;;;;;;8.45;7.28;;;22.20;99.90;;;;;;4945064;29;20439;-50
2022/08/24 12:34:54;;;;;;;7.03;6.10;;;22.20;99.90;;;;;;4947432;29;20459;-51
2022/08/24 12:37:31;;;;;;;9.50;6.80;;;22.60;99.90;;;;;;4945200;29;20048;-52
2022/08/24 12:40:22;;;;;;;8.50;6.97;;;22.70;99.90;;;;;;4947056;29;20063;-51
2022/08/24 12:42:57;;;;;;;6.75;6.05;;;23.00;99.90;;;;;;4896976;29;20033;-49
2022/08/24 12:45:24;;;;;;;9.25;6.40;;;23.30;99.90;;;;;;4927312;29;20036;-50
2022/08/24 12:47:52;;;;;;;8.20;6.43;;;23.20;99.90;;;;;;4933547;29;20096;-52
2022/08/24 12:50:28;;;;;;;9.15;6.35;;;23.30;99.90;;;;;;4930935;29;20035;-52
2022/08/24 12:53:11;;;;;;;7.22;5.75;;;23.60;99.90;;;;;;4932169;29;20056;-51
2022/08/24 12:56:00;;;;;;;7.85;5.60;;;23.70;99.90;;;;;;4933763;29;20380;-50
2022/08/24 12:58:31;;;;;;;8.50;5.65;;;23.80;99.90;;;;;;4910844;29;20112;-50
2022/08/24 13:01:03;;;;;;;10.30;6.43;;;24.00;99.90;;;;;;4934020;29;20044;-49
2022/08/24 13:03:37;;;;;;;8.13;4.80;;;24.00;99.90;;;;;;4942518;29;20765;-51
2022/08/24 13:06:26;;;;;;;5.47;4.90;;;24.20;99.90;;;;;;4938860;29;20036;-50